createdAt,value
2022-08-28T00:02:33.956Z,57.85
2022-08-28T00:07:36.625Z,56.46
2022-08-28T00:12:40.393Z,59.03
2022-08-28T00:17:43.485Z,59.97
2022-08-28T00:22:46.982Z,60.45
2022-08-28T00:27:55.144Z,60.62
2022-08-28T00:33:06.467Z,61.22
2022-08-28T00:38:09.801Z,61.49
2022-08-28T00:43:25.961Z,61.81
2022-08-28T00:48:28.771Z,62.96
2022-08-28T00:53:32.952Z,66.24
2022-08-28T00:58:36.251Z,62.44
2022-08-28T01:03:39.679Z,54.71
2022-08-28T01:08:45.674Z,55.81
2022-08-28T01:13:54.659Z,58.92
2022-08-28T01:18:58.150Z,61.21
2022-08-28T01:24:08.132Z,62.23
2022-08-28T01:29:12.014Z,66.12
2022-08-28T01:34:15.072Z,61.34
2022-08-28T01:39:20.360Z,53.90
2022-08-28T01:44:25.862Z,53.84
2022-08-28T01:49:29.537Z,57.47
2022-08-28T01:54:32.154Z,60.60
2022-08-28T01:59:34.850Z,63.01
2022-08-28T02:04:38.828Z,58.05
2022-08-28T02:09:41.468Z,59.74
2022-08-28T02:14:44.141Z,62.46
2022-08-28T02:19:46.775Z,59.92
2022-08-28T02:24:49.497Z,58.51
2022-08-28T02:29:53.320Z,60.32
2022-08-28T02:34:56.698Z,61.61
2022-08-28T02:39:59.962Z,62.46
2022-08-28T02:45:02.955Z,58.55
2022-08-28T02:50:07.562Z,59.11
2022-08-28T02:55:11.578Z,61.02
2022-08-28T03:00:16.418Z,62.47
2022-08-28T03:05:21.162Z,60.32
2022-08-28T03:10:24.114Z,58.12
2022-08-28T03:15:26.813Z,60.68
2022-08-28T03:20:29.411Z,62.58
2022-08-28T03:25:32.069Z,58.75
2022-08-28T03:30:34.761Z,58.33
2022-08-28T03:35:37.895Z,60.56
2022-08-28T03:40:42.690Z,62.54
2022-08-28T03:46:03.759Z,60.72
2022-08-28T03:51:08.135Z,55.85
2022-08-28T03:56:12.546Z,58.88
2022-08-28T04:01:15.185Z,61.62
2022-08-28T04:06:18.464Z,61.60
2022-08-28T04:11:21.055Z,57.11
2022-08-28T04:16:24.694Z,57.39
2022-08-28T04:21:28.532Z,59.80
2022-08-28T04:26:36.530Z,62.35
2022-08-28T04:31:40.163Z,59.79
2022-08-28T04:36:43.311Z,57.70
2022-08-28T04:41:46.407Z,59.25
2022-08-28T04:46:48.984Z,60.56
2022-08-28T04:51:52.232Z,61.42
2022-08-28T04:56:54.931Z,62.56
2022-08-28T05:01:57.564Z,58.66
2022-08-28T05:07:00.192Z,56.66
2022-08-28T05:12:04.157Z,58.00
2022-08-28T05:17:06.859Z,57.77
2022-08-28T05:22:10.488Z,56.62
2022-08-28T05:27:13.137Z,55.58
2022-08-28T05:32:16.080Z,54.32
2022-08-28T05:37:19.783Z,53.19
2022-08-28T05:42:22.533Z,52.56
2022-08-28T05:47:25.333Z,51.15
2022-08-28T05:52:28.845Z,50.36
2022-08-28T05:57:31.521Z,50.34
2022-08-28T06:02:36.784Z,47.98
2022-08-28T06:07:39.976Z,47.63
2022-08-28T06:12:42.573Z,46.91
2022-08-28T06:17:45.430Z,44.88
2022-08-28T06:22:50.120Z,42.81
2022-08-28T06:27:52.713Z,41.69
2022-08-28T06:32:55.333Z,41.85
2022-08-28T06:37:59.020Z,40.91
2022-08-28T06:43:02.015Z,40.36
2022-08-28T06:48:04.710Z,39.27
2022-08-28T06:53:09.290Z,38.88
2022-08-28T06:58:13.046Z,37.18
2022-08-28T07:03:15.902Z,38.01
2022-08-28T07:08:20.482Z,37.24
2022-08-28T07:13:23.384Z,36.36
2022-08-28T07:18:26.048Z,36.12
2022-08-28T07:23:29.434Z,33.50
2022-08-28T07:28:32.355Z,31.83
2022-08-28T07:33:35.175Z,31.78
2022-08-28T07:38:38.421Z,31.31
2022-08-28T07:44:00.013Z,30.33
2022-08-28T07:49:02.745Z,29.88
2022-08-28T07:54:06.176Z,28.66
2022-08-28T07:59:11.752Z,27.64
2022-08-28T08:04:17.567Z,26.55
2022-08-28T08:09:20.580Z,25.72
2022-08-28T08:14:25.252Z,24.96
2022-08-28T08:19:27.913Z,25.95
2022-08-28T08:24:30.536Z,26.40
2022-08-28T08:29:35.906Z,25.96
2022-08-28T08:34:41.304Z,24.52
2022-08-28T08:39:43.986Z,23.77
2022-08-28T08:44:47.763Z,24.35
2022-08-28T08:50:10.594Z,23.42
2022-08-28T08:55:27.447Z,23.06
2022-08-28T09:00:37.715Z,22.53
2022-08-28T09:05:50.168Z,22.79
2022-08-28T09:11:01.056Z,21.94
2022-08-28T09:16:05.156Z,20.36
2022-08-28T09:21:07.878Z,20.58
2022-08-28T09:26:21.387Z,20.70
2022-08-28T09:31:32.329Z,20.67
2022-08-28T09:36:36.857Z,19.54
2022-08-28T09:42:01.226Z,19.25
2022-08-28T09:47:03.829Z,19.10
2022-08-28T09:52:23.046Z,18.21
2022-08-28T09:57:27.968Z,17.72
2022-08-28T10:02:41.391Z,17.36
2022-08-28T10:07:47.269Z,17.46
2022-08-28T10:12:50.506Z,16.82
2022-08-28T10:18:09.121Z,15.94
2022-08-28T10:23:24.905Z,16.24
2022-08-28T10:28:33.731Z,16.63
2022-08-28T10:33:54.798Z,16.86
2022-08-28T10:39:03.445Z,16.54
2022-08-28T10:44:07.787Z,16.83
2022-08-28T10:49:22.330Z,16.41
2022-08-28T10:54:30.509Z,15.62
2022-08-28T10:59:41.831Z,15.42
2022-08-28T11:04:47.140Z,15.38
2022-08-28T11:09:50.215Z,15.15
2022-08-28T11:14:52.773Z,15.00
2022-08-28T11:20:01.489Z,14.83
2022-08-28T11:25:33.938Z,14.15
2022-08-28T11:30:38.828Z,13.70
2022-08-28T11:35:43.754Z,14.19
2022-08-28T11:40:51.134Z,13.69
2022-08-28T11:45:55.138Z,13.57
2022-08-28T11:51:02.391Z,13.91
2022-08-28T11:56:16.044Z,12.77
2022-08-28T12:01:37.675Z,12.92
2022-08-28T12:06:40.735Z,13.13
2022-08-28T12:11:43.692Z,13.54
2022-08-28T12:16:58.604Z,12.82
2022-08-28T12:22:09.971Z,12.92
2022-08-28T12:27:13.825Z,12.97
2022-08-28T12:32:35.209Z,13.05
2022-08-28T12:38:09.373Z,13.56
2022-08-28T12:43:15.377Z,13.44
2022-08-28T12:48:25.148Z,13.58
2022-08-28T12:53:27.889Z,14.65
2022-08-28T12:58:34.115Z,15.91
2022-08-28T13:03:48.029Z,16.13
2022-08-28T13:08:53.922Z,16.29
2022-08-28T13:13:56.736Z,17.30
2022-08-28T13:19:05.577Z,17.62
2022-08-28T13:24:27.565Z,18.24
2022-08-28T13:29:31.069Z,19.07
2022-08-28T13:34:34.964Z,20.51
2022-08-28T13:39:37.921Z,19.59
2022-08-28T13:44:53.330Z,18.80
2022-08-28T13:49:56.018Z,19.24
2022-08-28T13:54:58.806Z,19.58
2022-08-28T14:00:02.342Z,19.77
2022-08-28T14:05:05.953Z,19.99
2022-08-28T14:10:12.164Z,20.29
2022-08-28T14:15:16.461Z,20.53
2022-08-28T14:20:19.977Z,20.73
2022-08-28T14:25:22.619Z,20.68
2022-08-28T14:30:26.345Z,20.61
2022-08-28T14:35:28.918Z,21.70
2022-08-28T14:40:31.683Z,21.50
2022-08-28T14:45:41.293Z,22.71
2022-08-28T14:50:48.224Z,23.26
2022-08-28T14:55:50.906Z,23.33
2022-08-28T15:00:53.555Z,23.66
2022-08-28T15:06:00.176Z,23.73
2022-08-28T15:11:18.415Z,22.65
2022-08-28T15:16:29.894Z,22.47
2022-08-28T15:21:34.926Z,22.16
2022-08-28T15:26:40.171Z,21.27
2022-08-28T15:31:45.596Z,21.12
2022-08-28T15:36:55.301Z,22.08
2022-08-28T15:41:59.645Z,22.63
2022-08-28T15:47:03.215Z,23.41
2022-08-28T15:52:06.729Z,25.08
2022-08-28T15:57:10.083Z,25.59
2022-08-28T16:02:12.819Z,26.22
2022-08-28T16:07:15.841Z,28.36
2022-08-28T16:12:18.468Z,32.39
2022-08-28T16:17:21.510Z,36.34
2022-08-28T16:22:24.524Z,39.52
2022-08-28T16:27:27.296Z,40.02
2022-08-28T16:32:31.455Z,42.32
2022-08-28T16:37:39.717Z,46.36
2022-08-28T16:42:51.463Z,49.95
2022-08-28T16:47:54.861Z,51.66
2022-08-28T16:53:02.456Z,52.78
2022-08-28T16:58:07.628Z,56.38
2022-08-28T17:03:10.975Z,58.11
2022-08-28T17:08:13.893Z,58.52
2022-08-28T17:13:16.795Z,60.50
2022-08-28T17:18:19.392Z,59.93
2022-08-28T17:23:22.019Z,62.03
2022-08-28T17:28:24.688Z,63.17
2022-08-28T17:33:27.666Z,58.31
2022-08-28T17:38:30.364Z,58.17
2022-08-28T17:43:33.373Z,60.16
2022-08-28T17:48:37.093Z,60.94
2022-08-28T17:53:40.213Z,60.19
2022-08-28T17:58:42.842Z,61.73
2022-08-28T18:03:53.468Z,64.78
2022-08-28T18:08:56.622Z,61.57
2022-08-28T18:14:02.344Z,58.99
2022-08-28T18:19:06.537Z,56.72
2022-08-28T18:24:13.008Z,58.11
2022-08-28T18:29:15.821Z,61.17
2022-08-28T18:34:18.514Z,64.30
2022-08-28T18:39:29.535Z,67.38
2022-08-28T18:44:32.876Z,67.78
2022-08-28T18:49:35.469Z,61.03
2022-08-28T18:54:38.533Z,56.11
2022-08-28T18:59:41.131Z,57.80
2022-08-28T19:04:44.852Z,61.08
2022-08-28T19:09:47.481Z,64.30
2022-08-28T19:14:53.284Z,65.28
2022-08-28T19:19:55.930Z,62.64
2022-08-28T19:24:58.889Z,57.92
2022-08-28T19:30:04.216Z,58.16
2022-08-28T19:35:07.454Z,59.90
2022-08-28T19:40:10.877Z,62.38
2022-08-28T19:45:14.954Z,65.24
2022-08-28T19:50:18.366Z,62.41
2022-08-28T19:55:25.859Z,60.46
2022-08-28T20:00:33.146Z,57.39
2022-08-28T20:05:38.190Z,59.54
2022-08-28T20:10:42.566Z,63.17
2022-08-28T20:15:46.808Z,64.85
2022-08-28T20:20:51.401Z,64.60
2022-08-28T20:25:54.594Z,61.47
2022-08-28T20:30:57.463Z,58.05
2022-08-28T20:36:04.725Z,57.08
2022-08-28T20:41:09.633Z,59.18
2022-08-28T20:46:13.885Z,62.37
2022-08-28T20:51:16.694Z,67.24
2022-08-28T20:56:19.512Z,66.70
2022-08-28T21:01:22.751Z,60.97
2022-08-28T21:06:25.443Z,57.47
2022-08-28T21:11:29.540Z,60.65
2022-08-28T21:16:34.169Z,63.44
2022-08-28T21:21:37.600Z,62.91
2022-08-28T21:26:50.671Z,60.72
2022-08-28T21:31:54.640Z,60.49
2022-08-28T21:36:58.008Z,59.61
2022-08-28T21:42:00.738Z,64.12
2022-08-28T21:47:03.489Z,65.89
2022-08-28T21:52:06.368Z,63.06
2022-08-28T21:57:08.962Z,63.45
2022-08-28T22:02:11.617Z,62.87
2022-08-28T22:07:14.356Z,63.35
2022-08-28T22:12:16.979Z,63.96
2022-08-28T22:17:19.569Z,64.15
2022-08-28T22:22:41.749Z,64.32
2022-08-28T22:27:44.523Z,62.86
2022-08-28T22:32:47.178Z,62.60
2022-08-28T22:37:49.878Z,63.32
2022-08-28T22:42:52.834Z,64.14
2022-08-28T22:47:55.449Z,63.90
2022-08-28T22:52:58.111Z,64.62
2022-08-28T22:58:01.006Z,64.38
2022-08-28T23:03:04.329Z,64.10
2022-08-28T23:08:06.988Z,64.13
2022-08-28T23:13:09.640Z,63.75
2022-08-28T23:18:17.072Z,64.31
2022-08-28T23:23:20.261Z,63.34
2022-08-28T23:28:23.505Z,63.04
2022-08-28T23:33:26.101Z,63.42
2022-08-28T23:38:28.674Z,63.81
2022-08-28T23:43:31.578Z,63.57
2022-08-28T23:48:35.684Z,64.31
2022-08-28T23:53:38.877Z,64.55
2022-08-28T23:58:43.270Z,63.89
